sensor_id;sensor_type;location;lat;lon;timestamp;P1;durP1;ratioP1;P2;durP2;ratioP2
3465;SDS011;1747;48.884;9.160;2023-08-30T00:01:44;8.75;;;5.30;;
3465;SDS011;1747;48.884;9.160;2023-08-30T00:04:11;6.78;;;5.47;;
3465;SDS011;1747;48.884;9.160;2023-08-30T00:06:38;6.45;;;5.70;;
3465;SDS011;1747;48.884;9.160;2023-08-30T00:09:06;6.20;;;5.60;;
3465;SDS011;1747;48.884;9.160;2023-08-30T00:11:33;8.60;;;6.20;;
3465;SDS011;1747;48.884;9.160;2023-08-30T00:14:03;8.13;;;6.78;;
3465;SDS011;1747;48.884;9.160;2023-08-30T00:16:31;9.48;;;7.00;;
3465;SDS011;1747;48.884;9.160;2023-08-30T00:18:58;8.68;;;7.70;;
3465;SDS011;1747;48.884;9.160;2023-08-30T00:21:25;7.88;;;7.07;;
3465;SDS011;1747;48.884;9.160;2023-08-30T00:23:53;7.82;;;7.03;;
3465;SDS011;1747;48.884;9.160;2023-08-30T00:26:21;8.85;;;7.80;;
3465;SDS011;1747;48.884;9.160;2023-08-30T00:28:48;9.65;;;7.25;;
3465;SDS011;1747;48.884;9.160;2023-08-30T00:33:47;9.52;;;8.40;;
3465;SDS011;1747;48.884;9.160;2023-08-30T00:36:14;8.75;;;7.85;;
3465;SDS011;1747;48.884;9.160;2023-08-30T00:38:42;10.02;;;7.95;;
3465;SDS011;1747;48.884;9.160;2023-08-30T00:41:09;12.10;;;7.25;;
3465;SDS011;1747;48.884;9.160;2023-08-30T00:43:37;9.23;;;7.53;;
3465;SDS011;1747;48.884;9.160;2023-08-30T00:46:04;8.82;;;7.10;;
3465;SDS011;1747;48.884;9.160;2023-08-30T00:48:30;9.15;;;6.40;;
3465;SDS011;1747;48.884;9.160;2023-08-30T00:50:57;8.77;;;7.88;;
3465;SDS011;1747;48.884;9.160;2023-08-30T00:53:24;8.23;;;7.43;;
3465;SDS011;1747;48.884;9.160;2023-08-30T00:55:51;9.50;;;7.38;;
3465;SDS011;1747;48.884;9.160;2023-08-30T00:58:18;9.23;;;7.07;;
3465;SDS011;1747;48.884;9.160;2023-08-30T01:00:46;9.73;;;7.43;;
3465;SDS011;1747;48.884;9.160;2023-08-30T01:03:13;7.88;;;7.00;;
3465;SDS011;1747;48.884;9.160;2023-08-30T01:05:40;10.00;;;7.63;;
3465;SDS011;1747;48.884;9.160;2023-08-30T01:08:07;8.25;;;7.28;;
3465;SDS011;1747;48.884;9.160;2023-08-30T01:10:38;8.55;;;7.07;;
3465;SDS011;1747;48.884;9.160;2023-08-30T01:13:12;7.22;;;6.30;;
3465;SDS011;1747;48.884;9.160;2023-08-30T01:15:47;8.55;;;7.28;;
3465;SDS011;1747;48.884;9.160;2023-08-30T01:18:16;10.32;;;7.13;;
3465;SDS011;1747;48.884;9.160;2023-08-30T01:20:45;9.80;;;6.88;;
3465;SDS011;1747;48.884;9.160;2023-08-30T01:23:16;8.07;;;6.55;;
3465;SDS011;1747;48.884;9.160;2023-08-30T01:25:53;8.30;;;6.80;;
3465;SDS011;1747;48.884;9.160;2023-08-30T01:28:26;8.45;;;6.25;;
3465;SDS011;1747;48.884;9.160;2023-08-30T01:30:55;9.57;;;6.00;;
3465;SDS011;1747;48.884;9.160;2023-08-30T01:33:24;7.45;;;6.20;;
3465;SDS011;1747;48.884;9.160;2023-08-30T01:35:52;6.80;;;6.10;;
3465;SDS011;1747;48.884;9.160;2023-08-30T01:38:20;7.15;;;6.45;;
3465;SDS011;1747;48.884;9.160;2023-08-30T01:40:47;6.05;;;5.45;;
3465;SDS011;1747;48.884;9.160;2023-08-30T01:43:15;6.03;;;5.35;;
3465;SDS011;1747;48.884;9.160;2023-08-30T01:45:44;7.40;;;5.80;;
3465;SDS011;1747;48.884;9.160;2023-08-30T01:48:12;7.47;;;5.57;;
3465;SDS011;1747;48.884;9.160;2023-08-30T01:50:40;6.20;;;5.60;;
3465;SDS011;1747;48.884;9.160;2023-08-30T01:53:09;5.95;;;5.40;;
3465;SDS011;1747;48.884;9.160;2023-08-30T01:55:38;8.23;;;5.90;;
3465;SDS011;1747;48.884;9.160;2023-08-30T01:58:05;11.25;;;5.68;;
3465;SDS011;1747;48.884;9.160;2023-08-30T02:00:33;6.40;;;5.03;;
3465;SDS011;1747;48.884;9.160;2023-08-30T02:03:08;6.75;;;5.38;;
3465;SDS011;1747;48.884;9.160;2023-08-30T02:05:35;7.35;;;5.35;;
3465;SDS011;1747;48.884;9.160;2023-08-30T02:08:09;6.50;;;5.10;;
3465;SDS011;1747;48.884;9.160;2023-08-30T02:10:42;6.22;;;5.45;;
3465;SDS011;1747;48.884;9.160;2023-08-30T02:13:14;5.85;;;5.32;;
3465;SDS011;1747;48.884;9.160;2023-08-30T02:15:43;4.88;;;4.38;;
3465;SDS011;1747;48.884;9.160;2023-08-30T02:18:12;8.02;;;5.47;;
3465;SDS011;1747;48.884;9.160;2023-08-30T02:20:39;5.65;;;5.10;;
3465;SDS011;1747;48.884;9.160;2023-08-30T02:23:06;6.10;;;5.35;;
3465;SDS011;1747;48.884;9.160;2023-08-30T02:25:36;6.53;;;5.55;;
3465;SDS011;1747;48.884;9.160;2023-08-30T02:28:03;6.80;;;6.10;;
3465;SDS011;1747;48.884;9.160;2023-08-30T02:30:30;10.77;;;6.93;;
3465;SDS011;1747;48.884;9.160;2023-08-30T02:32:57;7.05;;;6.35;;
3465;SDS011;1747;48.884;9.160;2023-08-30T02:35:25;6.78;;;6.07;;
3465;SDS011;1747;48.884;9.160;2023-08-30T02:37:52;6.88;;;6.07;;
3465;SDS011;1747;48.884;9.160;2023-08-30T02:40:18;8.10;;;7.18;;
3465;SDS011;1747;48.884;9.160;2023-08-30T02:42:45;7.63;;;6.82;;
3465;SDS011;1747;48.884;9.160;2023-08-30T02:45:12;8.55;;;6.63;;
3465;SDS011;1747;48.884;9.160;2023-08-30T02:47:39;7.43;;;5.97;;
3465;SDS011;1747;48.884;9.160;2023-08-30T02:50:06;8.63;;;5.70;;
3465;SDS011;1747;48.884;9.160;2023-08-30T02:52:34;9.40;;;5.40;;
3465;SDS011;1747;48.884;9.160;2023-08-30T02:55:01;6.30;;;5.30;;
3465;SDS011;1747;48.884;9.160;2023-08-30T02:57:28;8.88;;;6.60;;
3465;SDS011;1747;48.884;9.160;2023-08-30T02:59:55;8.68;;;7.10;;
3465;SDS011;1747;48.884;9.160;2023-08-30T03:02:22;7.88;;;6.50;;
3465;SDS011;1747;48.884;9.160;2023-08-30T03:04:49;7.50;;;6.78;;
3465;SDS011;1747;48.884;9.160;2023-08-30T03:07:15;8.63;;;6.88;;
3465;SDS011;1747;48.884;9.160;2023-08-30T03:09:43;11.57;;;6.95;;
3465;SDS011;1747;48.884;9.160;2023-08-30T03:12:11;10.40;;;6.68;;
3465;SDS011;1747;48.884;9.160;2023-08-30T03:14:37;8.00;;;7.20;;
3465;SDS011;1747;48.884;9.160;2023-08-30T03:17:04;8.43;;;7.03;;
3465;SDS011;1747;48.884;9.160;2023-08-30T03:19:31;8.13;;;7.32;;
3465;SDS011;1747;48.884;9.160;2023-08-30T03:21:58;8.05;;;7.15;;
3465;SDS011;1747;48.884;9.160;2023-08-30T03:24:25;8.75;;;6.70;;
3465;SDS011;1747;48.884;9.160;2023-08-30T03:26:53;8.40;;;7.03;;
3465;SDS011;1747;48.884;9.160;2023-08-30T03:29:20;7.82;;;7.03;;
3465;SDS011;1747;48.884;9.160;2023-08-30T03:31:47;8.25;;;6.90;;
3465;SDS011;1747;48.884;9.160;2023-08-30T03:34:14;8.02;;;6.55;;
3465;SDS011;1747;48.884;9.160;2023-08-30T03:36:40;7.20;;;6.50;;
3465;SDS011;1747;48.884;9.160;2023-08-30T03:39:09;8.13;;;6.75;;
3465;SDS011;1747;48.884;9.160;2023-08-30T03:41:36;7.65;;;6.85;;
3465;SDS011;1747;48.884;9.160;2023-08-30T03:44:04;7.10;;;6.40;;
3465;SDS011;1747;48.884;9.160;2023-08-30T03:46:31;7.78;;;6.97;;
3465;SDS011;1747;48.884;9.160;2023-08-30T03:48:58;8.63;;;7.72;;
3465;SDS011;1747;48.884;9.160;2023-08-30T03:51:25;8.13;;;6.72;;
3465;SDS011;1747;48.884;9.160;2023-08-30T03:53:52;9.65;;;7.15;;
3465;SDS011;1747;48.884;9.160;2023-08-30T03:56:21;8.90;;;8.00;;
3465;SDS011;1747;48.884;9.160;2023-08-30T03:58:48;11.48;;;7.22;;
3465;SDS011;1747;48.884;9.160;2023-08-30T04:01:16;8.90;;;7.00;;
3465;SDS011;1747;48.884;9.160;2023-08-30T04:03:43;8.55;;;7.43;;
3465;SDS011;1747;48.884;9.160;2023-08-30T04:06:10;7.82;;;7.03;;
3465;SDS011;1747;48.884;9.160;2023-08-30T04:08:36;8.77;;;7.70;;
3465;SDS011;1747;48.884;9.160;2023-08-30T04:11:03;9.00;;;6.97;;
3465;SDS011;1747;48.884;9.160;2023-08-30T04:13:29;7.72;;;6.75;;
3465;SDS011;1747;48.884;9.160;2023-08-30T04:15:56;7.22;;;6.53;;
3465;SDS011;1747;48.884;9.160;2023-08-30T04:18:25;7.65;;;6.85;;
3465;SDS011;1747;48.884;9.160;2023-08-30T04:20:52;9.25;;;6.63;;
3465;SDS011;1747;48.884;9.160;2023-08-30T04:23:18;8.85;;;7.00;;
3465;SDS011;1747;48.884;9.160;2023-08-30T04:25:45;7.60;;;6.80;;
3465;SDS011;1747;48.884;9.160;2023-08-30T04:28:12;7.70;;;6.90;;
3465;SDS011;1747;48.884;9.160;2023-08-30T04:30:39;10.00;;;6.47;;
3465;SDS011;1747;48.884;9.160;2023-08-30T04:33:06;7.22;;;6.50;;
3465;SDS011;1747;48.884;9.160;2023-08-30T04:35:34;6.97;;;6.28;;
3465;SDS011;1747;48.884;9.160;2023-08-30T04:38:01;6.90;;;6.05;;
3465;SDS011;1747;48.884;9.160;2023-08-30T04:40:28;8.63;;;7.57;;
3465;SDS011;1747;48.884;9.160;2023-08-30T04:42:55;7.75;;;6.95;;
3465;SDS011;1747;48.884;9.160;2023-08-30T04:45:22;8.63;;;7.00;;
3465;SDS011;1747;48.884;9.160;2023-08-30T04:47:49;7.97;;;7.00;;
3465;SDS011;1747;48.884;9.160;2023-08-30T04:50:16;11.18;;;6.68;;
3465;SDS011;1747;48.884;9.160;2023-08-30T04:52:44;8.20;;;7.30;;
3465;SDS011;1747;48.884;9.160;2023-08-30T04:55:11;8.73;;;7.78;;
3465;SDS011;1747;48.884;9.160;2023-08-30T04:57:38;13.02;;;7.88;;
3465;SDS011;1747;48.884;9.160;2023-08-30T05:00:05;11.52;;;7.78;;
3465;SDS011;1747;48.884;9.160;2023-08-30T05:04:59;9.45;;;8.32;;
3465;SDS011;1747;48.884;9.160;2023-08-30T05:07:26;9.82;;;8.02;;
3465;SDS011;1747;48.884;9.160;2023-08-30T05:09:54;10.13;;;8.18;;
3465;SDS011;1747;48.884;9.160;2023-08-30T05:12:21;9.65;;;8.05;;
3465;SDS011;1747;48.884;9.160;2023-08-30T05:14:48;9.57;;;7.90;;
3465;SDS011;1747;48.884;9.160;2023-08-30T05:17:15;9.02;;;7.75;;
3465;SDS011;1747;48.884;9.160;2023-08-30T05:19:41;9.25;;;7.57;;
3465;SDS011;1747;48.884;9.160;2023-08-30T05:22:08;11.30;;;7.97;;
3465;SDS011;1747;48.884;9.160;2023-08-30T05:24:35;12.52;;;7.95;;
3465;SDS011;1747;48.884;9.160;2023-08-30T05:27:04;11.05;;;8.75;;
3465;SDS011;1747;48.884;9.160;2023-08-30T05:29:32;8.65;;;7.60;;
3465;SDS011;1747;48.884;9.160;2023-08-30T05:31:59;10.93;;;8.07;;
3465;SDS011;1747;48.884;9.160;2023-08-30T05:34:25;9.95;;;7.18;;
3465;SDS011;1747;48.884;9.160;2023-08-30T05:36:53;9.70;;;7.70;;
3465;SDS011;1747;48.884;9.160;2023-08-30T05:39:20;8.98;;;7.88;;
3465;SDS011;1747;48.884;9.160;2023-08-30T05:41:47;9.90;;;8.02;;
3465;SDS011;1747;48.884;9.160;2023-08-30T05:44:15;9.25;;;7.82;;
3465;SDS011;1747;48.884;9.160;2023-08-30T05:46:42;10.80;;;7.65;;
3465;SDS011;1747;48.884;9.160;2023-08-30T05:49:08;8.95;;;7.68;;
3465;SDS011;1747;48.884;9.160;2023-08-30T05:51:37;8.07;;;7.13;;
3465;SDS011;1747;48.884;9.160;2023-08-30T05:54:04;8.27;;;7.47;;
3465;SDS011;1747;48.884;9.160;2023-08-30T05:56:31;10.63;;;7.13;;
3465;SDS011;1747;48.884;9.160;2023-08-30T05:58:57;9.77;;;7.50;;
3465;SDS011;1747;48.884;9.160;2023-08-30T06:01:26;9.35;;;7.22;;
3465;SDS011;1747;48.884;9.160;2023-08-30T06:03:52;7.00;;;6.35;;
3465;SDS011;1747;48.884;9.160;2023-08-30T06:06:19;9.75;;;7.60;;
3465;SDS011;1747;48.884;9.160;2023-08-30T06:08:46;8.93;;;7.18;;
3465;SDS011;1747;48.884;9.160;2023-08-30T06:11:13;9.82;;;6.70;;
3465;SDS011;1747;48.884;9.160;2023-08-30T06:13:40;9.93;;;7.25;;
3465;SDS011;1747;48.884;9.160;2023-08-30T06:16:07;13.48;;;6.93;;
3465;SDS011;1747;48.884;9.160;2023-08-30T06:18:35;7.47;;;6.53;;
3465;SDS011;1747;48.884;9.160;2023-08-30T06:21:03;10.48;;;7.00;;
3465;SDS011;1747;48.884;9.160;2023-08-30T06:23:30;7.75;;;6.85;;
3465;SDS011;1747;48.884;9.160;2023-08-30T06:25:57;13.77;;;7.57;;
3465;SDS011;1747;48.884;9.160;2023-08-30T06:28:24;8.25;;;7.07;;
3465;SDS011;1747;48.884;9.160;2023-08-30T06:30:51;7.93;;;6.18;;
3465;SDS011;1747;48.884;9.160;2023-08-30T06:36:22;7.10;;;6.00;;
3465;SDS011;1747;48.884;9.160;2023-08-30T06:38:49;6.38;;;5.70;;
3465;SDS011;1747;48.884;9.160;2023-08-30T06:41:15;6.03;;;5.40;;
3465;SDS011;1747;48.884;9.160;2023-08-30T06:43:42;7.15;;;6.20;;
3465;SDS011;1747;48.884;9.160;2023-08-30T06:46:09;9.48;;;6.70;;
3465;SDS011;1747;48.884;9.160;2023-08-30T06:48:36;6.97;;;6.25;;
3465;SDS011;1747;48.884;9.160;2023-08-30T06:51:04;9.15;;;5.43;;
3465;SDS011;1747;48.884;9.160;2023-08-30T06:53:31;7.18;;;5.55;;
3465;SDS011;1747;48.884;9.160;2023-08-30T06:55:58;5.95;;;5.35;;
3465;SDS011;1747;48.884;9.160;2023-08-30T06:58:25;6.80;;;5.55;;
3465;SDS011;1747;48.884;9.160;2023-08-30T07:00:52;8.98;;;5.35;;
3465;SDS011;1747;48.884;9.160;2023-08-30T07:03:19;7.75;;;5.60;;
3465;SDS011;1747;48.884;9.160;2023-08-30T07:05:46;7.60;;;5.32;;
3465;SDS011;1747;48.884;9.160;2023-08-30T07:08:14;8.43;;;5.47;;
3465;SDS011;1747;48.884;9.160;2023-08-30T07:10:41;7.25;;;5.80;;
3465;SDS011;1747;48.884;9.160;2023-08-30T07:13:08;6.07;;;5.10;;
3465;SDS011;1747;48.884;9.160;2023-08-30T07:15:36;5.50;;;5.00;;
3465;SDS011;1747;48.884;9.160;2023-08-30T07:18:04;5.43;;;4.65;;
3465;SDS011;1747;48.884;9.160;2023-08-30T07:20:31;5.80;;;5.18;;
3465;SDS011;1747;48.884;9.160;2023-08-30T07:22:58;5.30;;;4.80;;
3465;SDS011;1747;48.884;9.160;2023-08-30T07:25:26;9.38;;;5.50;;
3465;SDS011;1747;48.884;9.160;2023-08-30T07:27:53;5.68;;;5.18;;
3465;SDS011;1747;48.884;9.160;2023-08-30T07:30:20;9.57;;;6.03;;
3465;SDS011;1747;48.884;9.160;2023-08-30T07:32:47;7.70;;;5.20;;
3465;SDS011;1747;48.884;9.160;2023-08-30T07:35:14;6.35;;;4.60;;
3465;SDS011;1747;48.884;9.160;2023-08-30T07:37:41;5.65;;;4.97;;
3465;SDS011;1747;48.884;9.160;2023-08-30T07:40:08;6.10;;;5.53;;
3465;SDS011;1747;48.884;9.160;2023-08-30T07:42:37;6.35;;;4.82;;
3465;SDS011;1747;48.884;9.160;2023-08-30T07:45:04;6.00;;;5.40;;
3465;SDS011;1747;48.884;9.160;2023-08-30T07:47:32;8.07;;;5.35;;
3465;SDS011;1747;48.884;9.160;2023-08-30T07:49:59;7.85;;;6.03;;
3465;SDS011;1747;48.884;9.160;2023-08-30T07:52:25;8.20;;;5.50;;
3465;SDS011;1747;48.884;9.160;2023-08-30T07:54:52;7.97;;;5.78;;
3465;SDS011;1747;48.884;9.160;2023-08-30T07:57:19;6.78;;;6.07;;
3465;SDS011;1747;48.884;9.160;2023-08-30T07:59:47;8.00;;;5.88;;
3465;SDS011;1747;48.884;9.160;2023-08-30T08:02:14;6.47;;;5.82;;
3465;SDS011;1747;48.884;9.160;2023-08-30T08:04:41;6.95;;;6.03;;
3465;SDS011;1747;48.884;9.160;2023-08-30T08:07:08;9.77;;;6.07;;
3465;SDS011;1747;48.884;9.160;2023-08-30T08:09:34;6.18;;;5.57;;
3465;SDS011;1747;48.884;9.160;2023-08-30T08:12:02;6.72;;;6.03;;
3465;SDS011;1747;48.884;9.160;2023-08-30T08:14:29;7.40;;;6.07;;
3465;SDS011;1747;48.884;9.160;2023-08-30T08:16:57;6.18;;;5.57;;
3465;SDS011;1747;48.884;9.160;2023-08-30T08:19:25;8.32;;;5.80;;
3465;SDS011;1747;48.884;9.160;2023-08-30T08:21:51;6.70;;;6.00;;
3465;SDS011;1747;48.884;9.160;2023-08-30T08:24:19;7.28;;;5.63;;
3465;SDS011;1747;48.884;9.160;2023-08-30T08:26:46;8.35;;;5.53;;
3465;SDS011;1747;48.884;9.160;2023-08-30T08:29:13;6.43;;;5.38;;
3465;SDS011;1747;48.884;9.160;2023-08-30T08:31:40;5.85;;;5.28;;
3465;SDS011;1747;48.884;9.160;2023-08-30T08:34:09;8.13;;;5.63;;
3465;SDS011;1747;48.884;9.160;2023-08-30T08:36:37;7.00;;;5.53;;
3465;SDS011;1747;48.884;9.160;2023-08-30T08:39:04;7.20;;;5.78;;
3465;SDS011;1747;48.884;9.160;2023-08-30T08:41:34;5.65;;;5.05;;
3465;SDS011;1747;48.884;9.160;2023-08-30T08:44:04;6.35;;;5.10;;
3465;SDS011;1747;48.884;9.160;2023-08-30T08:46:32;6.85;;;5.55;;
3465;SDS011;1747;48.884;9.160;2023-08-30T08:49:01;6.88;;;5.55;;
3465;SDS011;1747;48.884;9.160;2023-08-30T08:51:33;5.95;;;5.22;;
3465;SDS011;1747;48.884;9.160;2023-08-30T08:54:02;6.97;;;5.20;;
3465;SDS011;1747;48.884;9.160;2023-08-30T08:56:30;6.70;;;5.18;;
3465;SDS011;1747;48.884;9.160;2023-08-30T08:58:57;6.47;;;4.80;;
3465;SDS011;1747;48.884;9.160;2023-08-30T09:01:24;5.80;;;4.50;;
3465;SDS011;1747;48.884;9.160;2023-08-30T09:03:51;5.03;;;4.50;;
3465;SDS011;1747;48.884;9.160;2023-08-30T09:06:18;5.25;;;4.75;;
3465;SDS011;1747;48.884;9.160;2023-08-30T09:08:47;6.53;;;4.85;;
3465;SDS011;1747;48.884;9.160;2023-08-30T09:11:14;6.15;;;4.70;;
3465;SDS011;1747;48.884;9.160;2023-08-30T09:13:42;5.65;;;3.95;;
3465;SDS011;1747;48.884;9.160;2023-08-30T09:16:12;4.25;;;3.85;;
3465;SDS011;1747;48.884;9.160;2023-08-30T09:18:39;6.55;;;3.85;;
3465;SDS011;1747;48.884;9.160;2023-08-30T09:21:06;4.10;;;3.70;;
3465;SDS011;1747;48.884;9.160;2023-08-30T09:23:33;6.78;;;3.75;;
3465;SDS011;1747;48.884;9.160;2023-08-30T09:26:02;4.07;;;3.40;;
3465;SDS011;1747;48.884;9.160;2023-08-30T09:28:29;3.88;;;3.22;;
3465;SDS011;1747;48.884;9.160;2023-08-30T09:30:57;4.60;;;3.00;;
3465;SDS011;1747;48.884;9.160;2023-08-30T09:33:29;4.65;;;3.10;;
3465;SDS011;1747;48.884;9.160;2023-08-30T09:35:56;3.22;;;2.92;;
3465;SDS011;1747;48.884;9.160;2023-08-30T09:38:24;4.68;;;2.88;;
3465;SDS011;1747;48.884;9.160;2023-08-30T09:40:51;3.30;;;2.67;;
3465;SDS011;1747;48.884;9.160;2023-08-30T09:43:19;4.13;;;2.83;;
3465;SDS011;1747;48.884;9.160;2023-08-30T09:45:48;2.83;;;2.60;;
3465;SDS011;1747;48.884;9.160;2023-08-30T09:48:16;5.40;;;3.05;;
3465;SDS011;1747;48.884;9.160;2023-08-30T09:50:46;3.47;;;2.47;;
3465;SDS011;1747;48.884;9.160;2023-08-30T09:53:19;4.90;;;2.70;;
3465;SDS011;1747;48.884;9.160;2023-08-30T09:55:47;6.68;;;2.88;;
3465;SDS011;1747;48.884;9.160;2023-08-30T09:58:15;4.28;;;2.13;;
3465;SDS011;1747;48.884;9.160;2023-08-30T10:00:43;2.50;;;2.20;;
3465;SDS011;1747;48.884;9.160;2023-08-30T10:03:10;2.60;;;2.40;;
3465;SDS011;1747;48.884;9.160;2023-08-30T10:05:37;3.95;;;2.47;;
3465;SDS011;1747;48.884;9.160;2023-08-30T10:08:07;2.38;;;2.10;;
3465;SDS011;1747;48.884;9.160;2023-08-30T10:10:34;3.90;;;2.15;;
3465;SDS011;1747;48.884;9.160;2023-08-30T10:13:01;2.95;;;2.65;;
3465;SDS011;1747;48.884;9.160;2023-08-30T10:15:28;3.08;;;2.40;;
3465;SDS011;1747;48.884;9.160;2023-08-30T10:18:00;3.05;;;2.35;;
3465;SDS011;1747;48.884;9.160;2023-08-30T10:20:30;2.10;;;1.90;;
3465;SDS011;1747;48.884;9.160;2023-08-30T10:22:57;2.78;;;2.13;;
3465;SDS011;1747;48.884;9.160;2023-08-30T10:25:26;8.60;;;2.67;;
3465;SDS011;1747;48.884;9.160;2023-08-30T10:27:56;4.55;;;2.70;;
3465;SDS011;1747;48.884;9.160;2023-08-30T10:30:23;3.88;;;2.47;;
3465;SDS011;1747;48.884;9.160;2023-08-30T10:32:51;2.53;;;2.22;;
3465;SDS011;1747;48.884;9.160;2023-08-30T10:35:20;2.25;;;2.05;;
3465;SDS011;1747;48.884;9.160;2023-08-30T10:37:56;1.98;;;1.77;;
3465;SDS011;1747;48.884;9.160;2023-08-30T10:40:25;2.05;;;1.80;;
3465;SDS011;1747;48.884;9.160;2023-08-30T10:42:58;3.15;;;2.35;;
3465;SDS011;1747;48.884;9.160;2023-08-30T10:45:26;3.42;;;2.33;;
3465;SDS011;1747;48.884;9.160;2023-08-30T10:47:54;3.08;;;2.60;;
3465;SDS011;1747;48.884;9.160;2023-08-30T10:50:28;2.47;;;2.10;;
3465;SDS011;1747;48.884;9.160;2023-08-30T10:52:57;3.78;;;2.50;;
3465;SDS011;1747;48.884;9.160;2023-08-30T10:55:24;2.65;;;2.33;;
3465;SDS011;1747;48.884;9.160;2023-08-30T10:57:57;2.40;;;2.20;;
3465;SDS011;1747;48.884;9.160;2023-08-30T11:00:27;2.50;;;2.10;;
3465;SDS011;1747;48.884;9.160;2023-08-30T11:02:55;2.58;;;2.38;;
3465;SDS011;1747;48.884;9.160;2023-08-30T11:05:23;3.45;;;2.47;;
3465;SDS011;1747;48.884;9.160;2023-08-30T11:07:52;2.20;;;2.00;;
3465;SDS011;1747;48.884;9.160;2023-08-30T11:10:19;4.57;;;2.20;;
3465;SDS011;1747;48.884;9.160;2023-08-30T11:12:47;3.97;;;2.40;;
3465;SDS011;1747;48.884;9.160;2023-08-30T11:15:15;3.88;;;2.30;;
3465;SDS011;1747;48.884;9.160;2023-08-30T11:17:42;5.38;;;2.40;;
3465;SDS011;1747;48.884;9.160;2023-08-30T11:20:09;2.47;;;2.10;;
3465;SDS011;1747;48.884;9.160;2023-08-30T11:22:37;3.10;;;2.80;;
3465;SDS011;1747;48.884;9.160;2023-08-30T11:25:07;4.15;;;3.22;;
3465;SDS011;1747;48.884;9.160;2023-08-30T11:27:35;3.45;;;3.15;;
3465;SDS011;1747;48.884;9.160;2023-08-30T11:30:02;5.78;;;3.50;;
3465;SDS011;1747;48.884;9.160;2023-08-30T11:32:31;3.83;;;3.00;;
3465;SDS011;1747;48.884;9.160;2023-08-30T11:34:58;4.85;;;2.60;;
3465;SDS011;1747;48.884;9.160;2023-08-30T11:37:26;4.75;;;2.75;;
3465;SDS011;1747;48.884;9.160;2023-08-30T11:39:53;8.32;;;3.30;;
3465;SDS011;1747;48.884;9.160;2023-08-30T11:42:22;6.07;;;3.53;;
3465;SDS011;1747;48.884;9.160;2023-08-30T11:44:49;4.68;;;3.30;;
3465;SDS011;1747;48.884;9.160;2023-08-30T11:47:19;5.10;;;3.17;;
3465;SDS011;1747;48.884;9.160;2023-08-30T11:49:47;3.17;;;2.90;;
3465;SDS011;1747;48.884;9.160;2023-08-30T11:52:15;4.32;;;3.67;;
3465;SDS011;1747;48.884;9.160;2023-08-30T11:54:42;4.88;;;3.55;;
3465;SDS011;1747;48.884;9.160;2023-08-30T11:57:09;5.05;;;3.63;;
3465;SDS011;1747;48.884;9.160;2023-08-30T11:59:38;4.15;;;3.42;;
3465;SDS011;1747;48.884;9.160;2023-08-30T12:02:04;3.65;;;3.28;;
3465;SDS011;1747;48.884;9.160;2023-08-30T12:04:32;4.32;;;3.25;;
3465;SDS011;1747;48.884;9.160;2023-08-30T12:07:05;4.10;;;3.70;;
3465;SDS011;1747;48.884;9.160;2023-08-30T12:09:32;4.30;;;3.45;;
3465;SDS011;1747;48.884;9.160;2023-08-30T12:12:04;4.95;;;3.40;;
3465;SDS011;1747;48.884;9.160;2023-08-30T12:14:35;4.45;;;3.10;;
3465;SDS011;1747;48.884;9.160;2023-08-30T12:17:03;4.35;;;3.33;;
3465;SDS011;1747;48.884;9.160;2023-08-30T12:19:30;3.92;;;3.42;;
3465;SDS011;1747;48.884;9.160;2023-08-30T12:22:03;6.35;;;4.07;;
3465;SDS011;1747;48.884;9.160;2023-08-30T12:24:40;4.60;;;4.13;;
3465;SDS011;1747;48.884;9.160;2023-08-30T12:27:07;5.85;;;3.80;;
3465;SDS011;1747;48.884;9.160;2023-08-30T12:29:34;4.75;;;4.32;;
3465;SDS011;1747;48.884;9.160;2023-08-30T12:32:03;5.90;;;4.63;;
3465;SDS011;1747;48.884;9.160;2023-08-30T12:34:30;6.50;;;4.40;;
3465;SDS011;1747;48.884;9.160;2023-08-30T12:36:57;6.57;;;4.85;;
3465;SDS011;1747;48.884;9.160;2023-08-30T12:39:24;5.70;;;4.18;;
3465;SDS011;1747;48.884;9.160;2023-08-30T12:41:51;4.90;;;4.40;;
3465;SDS011;1747;48.884;9.160;2023-08-30T12:44:17;4.57;;;4.18;;
3465;SDS011;1747;48.884;9.160;2023-08-30T12:46:44;4.40;;;4.00;;
3465;SDS011;1747;48.884;9.160;2023-08-30T12:49:13;6.95;;;3.97;;
3465;SDS011;1747;48.884;9.160;2023-08-30T12:51:39;4.35;;;3.67;;
3465;SDS011;1747;48.884;9.160;2023-08-30T12:54:06;3.38;;;2.80;;
3465;SDS011;1747;48.884;9.160;2023-08-30T12:56:33;4.50;;;3.55;;
3465;SDS011;1747;48.884;9.160;2023-08-30T12:59:00;4.90;;;3.30;;
3465;SDS011;1747;48.884;9.160;2023-08-30T13:01:26;4.32;;;2.88;;
3465;SDS011;1747;48.884;9.160;2023-08-30T13:03:53;4.10;;;3.67;;
3465;SDS011;1747;48.884;9.160;2023-08-30T13:06:22;3.28;;;2.97;;
3465;SDS011;1747;48.884;9.160;2023-08-30T13:08:48;2.88;;;2.67;;
3465;SDS011;1747;48.884;9.160;2023-08-30T13:11:15;4.13;;;3.03;;
3465;SDS011;1747;48.884;9.160;2023-08-30T13:13:42;4.18;;;3.10;;
3465;SDS011;1747;48.884;9.160;2023-08-30T13:16:09;3.80;;;3.38;;
3465;SDS011;1747;48.884;9.160;2023-08-30T13:18:35;3.92;;;3.25;;
3465;SDS011;1747;48.884;9.160;2023-08-30T13:21:02;3.65;;;3.03;;
3465;SDS011;1747;48.884;9.160;2023-08-30T13:23:31;3.30;;;2.95;;
3465;SDS011;1747;48.884;9.160;2023-08-30T13:25:58;2.85;;;2.65;;
3465;SDS011;1747;48.884;9.160;2023-08-30T13:28:25;2.83;;;2.53;;
3465;SDS011;1747;48.884;9.160;2023-08-30T13:30:52;2.47;;;2.28;;
3465;SDS011;1747;48.884;9.160;2023-08-30T13:33:19;3.05;;;2.70;;
3465;SDS011;1747;48.884;9.160;2023-08-30T13:35:48;2.83;;;2.60;;
3465;SDS011;1747;48.884;9.160;2023-08-30T13:38:16;2.80;;;2.50;;
3465;SDS011;1747;48.884;9.160;2023-08-30T13:40:44;4.57;;;2.88;;
3465;SDS011;1747;48.884;9.160;2023-08-30T13:43:11;3.70;;;2.80;;
3465;SDS011;1747;48.884;9.160;2023-08-30T13:45:38;4.10;;;2.50;;
3465;SDS011;1747;48.884;9.160;2023-08-30T13:48:05;2.53;;;2.33;;
3465;SDS011;1747;48.884;9.160;2023-08-30T13:50:32;2.67;;;2.47;;
3465;SDS011;1747;48.884;9.160;2023-08-30T13:52:58;2.75;;;1.95;;
3465;SDS011;1747;48.884;9.160;2023-08-30T13:55:25;3.80;;;2.42;;
3465;SDS011;1747;48.884;9.160;2023-08-30T13:57:53;2.20;;;1.98;;
3465;SDS011;1747;48.884;9.160;2023-08-30T14:00:20;2.88;;;2.40;;
3465;SDS011;1747;48.884;9.160;2023-08-30T14:02:47;2.40;;;2.20;;
3465;SDS011;1747;48.884;9.160;2023-08-30T14:05:14;5.43;;;2.50;;
3465;SDS011;1747;48.884;9.160;2023-08-30T14:07:41;3.10;;;2.35;;
3465;SDS011;1747;48.884;9.160;2023-08-30T14:10:08;3.17;;;2.42;;
3465;SDS011;1747;48.884;9.160;2023-08-30T14:12:36;3.38;;;2.58;;
3465;SDS011;1747;48.884;9.160;2023-08-30T14:15:05;2.92;;;2.63;;
3465;SDS011;1747;48.884;9.160;2023-08-30T14:17:32;2.65;;;2.45;;
3465;SDS011;1747;48.884;9.160;2023-08-30T14:19:59;3.38;;;2.17;;
3465;SDS011;1747;48.884;9.160;2023-08-30T14:22:26;3.15;;;2.40;;
3465;SDS011;1747;48.884;9.160;2023-08-30T14:24:53;2.45;;;2.25;;
3465;SDS011;1747;48.884;9.160;2023-08-30T14:27:19;4.32;;;2.47;;
3465;SDS011;1747;48.884;9.160;2023-08-30T14:29:46;3.35;;;2.50;;
3465;SDS011;1747;48.884;9.160;2023-08-30T14:32:14;2.70;;;2.50;;
3465;SDS011;1747;48.884;9.160;2023-08-30T14:34:41;5.25;;;2.65;;
3465;SDS011;1747;48.884;9.160;2023-08-30T14:37:08;2.28;;;2.08;;
3465;SDS011;1747;48.884;9.160;2023-08-30T14:39:35;2.47;;;2.28;;
3465;SDS011;1747;48.884;9.160;2023-08-30T14:42:02;2.25;;;2.08;;
3465;SDS011;1747;48.884;9.160;2023-08-30T14:44:29;2.60;;;2.40;;
3465;SDS011;1747;48.884;9.160;2023-08-30T14:46:55;3.35;;;2.67;;
3465;SDS011;1747;48.884;9.160;2023-08-30T14:49:24;2.50;;;2.30;;
3465;SDS011;1747;48.884;9.160;2023-08-30T14:51:50;2.65;;;2.25;;
3465;SDS011;1747;48.884;9.160;2023-08-30T14:54:17;2.83;;;2.05;;
3465;SDS011;1747;48.884;9.160;2023-08-30T14:56:44;2.67;;;2.08;;
3465;SDS011;1747;48.884;9.160;2023-08-30T14:59:11;2.63;;;2.38;;
3465;SDS011;1747;48.884;9.160;2023-08-30T15:01:38;5.18;;;2.50;;
3465;SDS011;1747;48.884;9.160;2023-08-30T15:04:05;3.10;;;2.58;;
3465;SDS011;1747;48.884;9.160;2023-08-30T15:06:33;4.05;;;2.60;;
3465;SDS011;1747;48.884;9.160;2023-08-30T15:09:02;4.47;;;3.30;;
3465;SDS011;1747;48.884;9.160;2023-08-30T15:11:29;4.75;;;2.60;;
3465;SDS011;1747;48.884;9.160;2023-08-30T15:13:55;3.35;;;2.85;;
3465;SDS011;1747;48.884;9.160;2023-08-30T15:16:22;4.90;;;2.78;;
3465;SDS011;1747;48.884;9.160;2023-08-30T15:18:49;5.25;;;3.75;;
3465;SDS011;1747;48.884;9.160;2023-08-30T15:21:16;3.17;;;2.88;;
3465;SDS011;1747;48.884;9.160;2023-08-30T15:23:44;3.67;;;3.15;;
3465;SDS011;1747;48.884;9.160;2023-08-30T15:26:11;3.08;;;2.50;;